Time;durP1;ratioP1;P1;durP2;ratioP2;P2;SDS_P1;SDS_P2;PMS_P1;PMS_P2;Temp;Humidity;BMP_temperature;BMP_pressure;BME280_temperature;BME280_humidity;BME280_pressure;Samples;Min_cycle;Max_cycle;Signal;HPM_P1;HPM_P2
2023/09/09 00:02:06;;;;;;;48.05;25.85;;;;;;;28.58;45.03;100907.69;5073608;28;20055;-64
2023/09/09 00:04:34;;;;;;;24.98;13.10;;;;;;;28.47;45.06;100910.66;5074610;28;20055;-64
2023/09/09 00:07:03;;;;;;;21.73;10.55;;;;;;;28.72;44.49;100910.25;5072115;28;20060;-64
2023/09/09 00:09:30;;;;;;;49.33;22.55;;;;;;;28.84;44.41;100915.31;5054892;28;20052;-66
2023/09/09 00:11:58;;;;;;;28.08;12.85;;;;;;;28.86;44.21;100920.53;5073149;28;20056;-65
2023/09/09 00:14:27;;;;;;;25.85;11.60;;;;;;;28.95;44.26;100912.28;5090044;28;20056;-64
2023/09/09 00:16:55;;;;;;;22.45;8.82;;;;;;;28.79;44.73;100921.47;5074661;28;20053;-64
2023/09/09 00:19:24;;;;;;;14.18;7.63;;;;;;;28.59;45.04;100914.97;5073120;28;20063;-64
2023/09/09 00:21:51;;;;;;;16.83;7.13;;;;;;;28.44;45.46;100911.53;5065124;28;20060;-64
2023/09/09 00:24:18;;;;;;;16.27;7.25;;;;;;;28.29;45.85;100910.16;5051896;28;20061;-65
2023/09/09 00:26:46;;;;;;;11.02;7.00;;;;;;;28.35;45.92;100911.28;5048938;28;20049;-65
2023/09/09 00:29:13;;;;;;;12.88;6.78;;;;;;;28.38;46.22;100912.47;5049042;28;20741;-65
2023/09/09 00:31:41;;;;;;;14.45;7.28;;;;;;;28.59;45.59;100910.06;5049250;28;20041;-65
2023/09/09 00:34:08;;;;;;;12.18;7.10;;;;;;;28.50;45.64;100909.00;5049526;28;20064;-66
2023/09/09 00:36:36;;;;;;;14.27;6.95;;;;;;;28.30;45.91;100908.13;5064824;28;20058;-66
2023/09/09 00:39:04;;;;;;;12.23;6.78;;;;;;;28.27;46.47;100894.81;5068791;28;20053;-65
2023/09/09 00:41:31;;;;;;;14.23;6.75;;;;;;;28.35;46.53;100908.44;5038386;28;20064;-65
2023/09/09 00:43:59;;;;;;;15.90;7.53;;;;;;;28.40;45.91;100899.44;5050771;28;20087;-65
2023/09/09 00:46:26;;;;;;;11.25;6.50;;;;;;;28.39;46.18;100902.72;5046850;28;20054;-64
2023/09/09 00:48:54;;;;;;;17.35;7.00;;;;;;;28.20;46.50;100897.75;5033789;28;20045;-64
2023/09/09 00:51:22;;;;;;;13.18;6.88;;;;;;;28.20;46.72;100898.56;5074172;28;20447;-65
2023/09/09 00:53:50;;;;;;;12.23;6.88;;;;;;;28.17;46.92;100896.59;5089179;28;20055;-65
2023/09/09 00:56:17;;;;;;;49.88;27.17;;;;;;;28.16;46.98;100894.19;5051739;28;20057;-64
2023/09/09 00:58:45;;;;;;;29.77;13.35;;;;;;;28.04;46.97;100901.25;5051406;28;20053;-65
2023/09/09 01:01:12;;;;;;;23.48;10.63;;;;;;;28.08;47.11;100904.03;5051890;28;20057;-64
2023/09/09 01:03:40;;;;;;;21.08;9.43;;;;;;;28.21;46.61;100903.00;5069132;28;20056;-64
2023/09/09 01:06:08;;;;;;;17.85;9.18;;;;;;;28.17;46.47;100898.63;5048617;28;20044;-64
2023/09/09 01:08:35;;;;;;;21.35;11.88;;;;;;;28.21;46.37;100902.22;5048771;28;20400;-63
2023/09/09 01:11:03;;;;;;;18.45;8.57;;;;;;;28.13;47.06;100906.38;5069386;28;20064;-64
2023/09/09 01:13:30;;;;;;;19.65;7.93;;;;;;;28.16;46.56;100905.50;5054460;28;20045;-64
2023/09/09 01:15:59;;;;;;;15.35;7.07;;;;;;;28.08;46.88;100904.03;5036021;28;20040;-64
2023/09/09 01:18:28;;;;;;;15.52;7.40;;;;;;;28.11;47.03;100906.00;5051455;28;20045;-65
2023/09/09 01:21:15;;;;;;;18.20;7.43;;;;;;;28.07;46.92;100906.03;5052155;28;20052;-64
2023/09/09 01:23:43;;;;;;;14.65;7.90;;;;;;;28.10;46.78;100902.38;5085907;28;20052;-65
2023/09/09 01:26:10;;;;;;;14.23;7.20;;;;;;;27.89;47.70;100905.50;5054116;28;20049;-64
2023/09/09 01:28:38;;;;;;;15.13;7.60;;;;;;;27.85;47.79;100907.56;5068018;28;20448;-64
2023/09/09 01:31:05;;;;;;;14.40;7.53;;;;;;;27.94;47.21;100905.03;5053035;28;20376;-66
2023/09/09 01:33:33;;;;;;;15.25;7.55;;;;;;;27.76;48.18;100904.44;5053310;28;20060;-64
2023/09/09 01:36:03;;;;;;;13.68;7.65;;;;;;;27.88;47.92;100905.94;5057512;28;20051;-65
2023/09/09 01:38:34;;;;;;;17.02;7.55;;;;;;;27.77;47.90;100909.69;5056351;28;20040;-63
2023/09/09 01:41:03;;;;;;;17.73;7.75;;;;;;;27.79;47.98;100909.28;5051388;28;20052;-64
2023/09/09 01:43:31;;;;;;;17.52;8.45;;;;;;;27.99;48.12;100909.41;5035047;28;20060;-64
2023/09/09 01:45:59;;;;;;;14.63;7.90;;;;;;;27.89;48.04;100905.50;5051526;28;20056;-64
2023/09/09 01:48:27;;;;;;;13.15;7.97;;;;;;;27.65;48.74;100901.00;5034570;28;20056;-64
2023/09/09 01:50:54;;;;;;;13.68;7.53;;;;;;;27.77;48.67;100906.06;5060785;28;20056;-64
2023/09/09 01:53:22;;;;;;;21.45;7.72;;;;;;;27.64;48.71;100907.88;5054087;28;20434;-64
2023/09/09 01:55:49;;;;;;;13.90;8.00;;;;;;;27.60;48.88;100898.59;5056709;28;20056;-65
2023/09/09 01:58:17;;;;;;;16.63;7.53;;;;;;;27.54;49.24;100901.13;5051964;28;20049;-64
2023/09/09 02:00:44;;;;;;;19.15;8.35;;;;;;;27.57;49.04;100902.28;5050751;28;20049;-64
2023/09/09 02:03:11;;;;;;;14.63;6.72;;;;;;;27.65;49.03;100903.81;5052874;28;20783;-63
2023/09/09 02:05:39;;;;;;;16.65;7.18;;;;;;;27.69;48.89;100901.72;5050831;28;20091;-64
2023/09/09 02:08:07;;;;;;;12.02;6.57;;;;;;;27.41;49.22;100896.44;5051032;28;20049;-64
2023/09/09 02:10:34;;;;;;;13.00;6.38;;;;;;;27.34;49.48;100905.00;5040996;28;20048;-64
2023/09/09 02:13:01;;;;;;;15.20;6.63;;;;;;;27.32;49.81;100901.81;5072246;28;20052;-64
2023/09/09 02:15:29;;;;;;;15.55;7.65;;;;;;;27.41;49.99;100899.25;5056314;28;20052;-64
2023/09/09 02:17:57;;;;;;;14.18;6.70;;;;;;;27.35;49.87;100903.81;5033413;28;20048;-64
2023/09/09 02:20:25;;;;;;;13.75;6.45;;;;;;;27.30;50.09;100899.38;5050992;28;20052;-64
2023/09/09 02:22:53;;;;;;;10.85;6.30;;;;;;;27.29;50.27;100905.44;5077907;28;20510;-65
2023/09/09 02:25:21;;;;;;;14.95;7.05;;;;;;;27.21;50.23;100898.28;5052505;28;20514;-63
2023/09/09 02:27:49;;;;;;;15.15;6.85;;;;;;;27.45;50.10;100897.19;5067334;28;20513;-64
2023/09/09 02:30:16;;;;;;;17.15;7.07;;;;;;;27.31;50.53;100897.38;5050653;28;20049;-64
2023/09/09 02:32:45;;;;;;;10.20;6.55;;;;;;;27.36;50.39;100902.56;5034257;28;20052;-64
2023/09/09 02:35:13;;;;;;;15.43;7.28;;;;;;;27.38;50.62;100903.75;5029679;28;20057;-64
2023/09/09 02:37:41;;;;;;;20.27;7.03;;;;;;;27.39;50.71;100894.03;5069461;28;20060;-65
2023/09/09 02:40:09;;;;;;;13.60;7.40;;;;;;;27.14;51.25;100892.69;5070692;28;20071;-64
2023/09/09 02:42:36;;;;;;;14.32;7.07;;;;;;;27.33;50.69;100889.28;5072287;28;20056;-64
2023/09/09 02:45:04;;;;;;;16.77;7.28;;;;;;;27.32;50.54;100890.50;5070500;28;20053;-64
2023/09/09 02:47:33;;;;;;;17.17;7.75;;;;;;;27.27;50.52;100894.56;5072667;28;20582;-64
2023/09/09 02:50:03;;;;;;;12.95;7.53;;;;;;;27.20;51.11;100896.69;5051140;28;20048;-64
2023/09/09 02:52:31;;;;;;;13.77;7.18;;;;;;;27.33;50.48;100904.22;5070541;28;20071;-64
2023/09/09 02:54:58;;;;;;;13.43;7.05;;;;;;;27.46;50.12;100896.00;5072357;28;20162;-64
2023/09/09 02:57:26;;;;;;;15.23;6.93;;;;;;;27.42;50.19;100896.03;5051971;28;20064;-64
2023/09/09 02:59:53;;;;;;;12.13;6.55;;;;;;;27.28;50.39;100890.53;5050778;28;20057;-64
2023/09/09 03:02:20;;;;;;;18.88;7.25;;;;;;;27.24;51.18;100886.91;5067406;28;20057;-64
2023/09/09 03:04:48;;;;;;;11.65;6.57;;;;;;;27.30;50.85;100890.13;5052836;28;20049;-66
2023/09/09 03:07:16;;;;;;;13.27;6.90;;;;;;;27.31;51.05;100888.88;5037979;28;20628;-63
2023/09/09 03:09:45;;;;;;;19.08;7.60;;;;;;;27.21;50.82;100889.78;5054152;28;20048;-64
2023/09/09 03:12:12;;;;;;;13.88;6.97;;;;;;;27.13;51.34;100893.94;5047873;28;20063;-64
2023/09/09 03:14:40;;;;;;;14.60;7.20;;;;;;;27.15;51.42;100903.59;5054142;28;20044;-63
2023/09/09 03:17:07;;;;;;;14.70;7.53;;;;;;;27.33;50.82;100892.91;5071146;28;20396;-64
2023/09/09 03:19:35;;;;;;;19.35;7.35;;;;;;;27.22;51.26;100891.38;5066310;28;20055;-63
2023/09/09 03:22:03;;;;;;;16.25;7.10;;;;;;;27.23;51.07;100887.34;5056609;28;20032;-64
2023/09/09 03:24:31;;;;;;;19.15;7.05;;;;;;;27.18;51.48;100891.44;5051959;28;20048;-64
2023/09/09 03:26:58;;;;;;;13.55;6.70;;;;;;;27.23;51.27;100896.63;5070316;28;20064;-64
2023/09/09 03:29:26;;;;;;;15.38;7.50;;;;;;;27.12;51.55;100895.97;5054698;28;20158;-65
2023/09/09 03:31:54;;;;;;;14.55;7.57;;;;;;;27.33;51.15;100897.75;5054345;28;20503;-65
2023/09/09 03:34:21;;;;;;;14.90;6.55;;;;;;;27.25;50.88;100890.56;5055581;28;20068;-65
2023/09/09 03:36:48;;;;;;;13.95;7.20;;;;;;;27.09;51.45;100887.50;5066371;28;20063;-64
2023/09/09 03:39:16;;;;;;;19.83;7.65;;;;;;;27.13;51.51;100886.25;5074785;28;20041;-64
2023/09/09 03:41:44;;;;;;;14.23;7.05;;;;;;;27.11;51.77;100893.56;5055570;28;20057;-64
2023/09/09 03:44:12;;;;;;;16.15;8.10;;;;;;;27.13;51.59;100889.06;5052067;28;20571;-64
2023/09/09 03:46:39;;;;;;;15.60;6.95;;;;;;;27.32;51.28;100888.47;5050389;28;20057;-64
2023/09/09 03:49:06;;;;;;;16.73;7.45;;;;;;;27.34;51.28;100893.69;5035126;28;20068;-66
2023/09/09 03:51:35;;;;;;;19.50;8.07;;;;;;;27.09;51.76;100893.16;5068462;28;20059;-65
2023/09/09 03:54:02;;;;;;;17.08;7.50;;;;;;;26.86;52.16;100891.00;5056962;28;20056;-65
2023/09/09 03:56:30;;;;;;;13.10;7.43;;;;;;;26.81;52.28;100888.63;5035894;28;20050;-64
2023/09/09 03:58:57;;;;;;;15.35;6.82;;;;;;;26.90;52.55;100885.31;5045815;28;20045;-64
2023/09/09 04:01:26;;;;;;;11.82;8.07;;;;;;;27.05;52.33;100889.56;5053718;28;20048;-64
2023/09/09 04:03:54;;;;;;;14.65;7.38;;;;;;;27.15;51.82;100891.47;5054349;28;20057;-63
2023/09/09 04:06:21;;;;;;;15.85;8.75;;;;;;;27.24;51.88;100889.75;5053383;28;20053;-65
2023/09/09 04:08:55;;;;;;;18.52;7.70;;;;;;;27.04;52.40;100896.47;5053620;28;20052;-64
2023/09/09 04:11:23;;;;;;;15.85;7.85;;;;;;;26.98;52.31;100901.78;5050623;28;20056;-65
2023/09/09 04:13:51;;;;;;;16.67;7.97;;;;;;;27.07;52.16;100896.44;5053404;28;20053;-65
2023/09/09 04:16:19;;;;;;;13.77;6.60;;;;;;;26.92;52.29;100894.94;5052651;28;20411;-68
2023/09/09 04:18:47;;;;;;;14.05;6.70;;;;;;;26.87;52.80;100900.28;5044671;28;20041;-67
2023/09/09 04:21:17;;;;;;;11.85;7.22;;;;;;;27.01;52.75;100895.25;5049048;28;20061;-68
2023/09/09 04:23:44;;;;;;;18.02;8.20;;;;;;;26.76;52.89;100896.75;5069154;28;20462;-66
2023/09/09 04:26:12;;;;;;;13.95;7.53;;;;;;;26.66;53.71;100904.88;5051152;28;20411;-68
2023/09/09 04:28:40;;;;;;;16.98;8.13;;;;;;;26.63;53.20;100899.25;5052930;28;20049;-68
2023/09/09 04:31:08;;;;;;;17.10;8.20;;;;;;;26.67;53.56;100898.03;5054469;28;20381;-68
2023/09/09 04:33:39;;;;;;;20.73;8.05;;;;;;;26.63;53.65;100908.56;5053040;28;20146;-69
2023/09/09 04:36:07;;;;;;;20.55;8.13;;;;;;;26.53;53.67;100906.63;5042674;28;20048;-68
2023/09/09 04:38:35;;;;;;;21.10;7.13;;;;;;;26.49;53.77;100908.69;5034299;28;20069;-67
2023/09/09 04:41:02;;;;;;;22.58;9.77;;;;;;;26.66;53.66;100906.91;5061962;28;20041;-67
2023/09/09 04:43:30;;;;;;;16.10;7.95;;;;;;;26.86;53.16;100902.31;5040974;28;20057;-67
2023/09/09 04:45:57;;;;;;;19.65;8.20;;;;;;;26.78;52.90;100897.16;5033771;28;20447;-68
2023/09/09 04:48:26;;;;;;;50.67;23.88;;;;;;;26.81;52.92;100904.78;5033261;28;20057;-68
2023/09/09 04:50:53;;;;;;;38.38;19.33;;;;;;;26.78;52.97;100908.44;5052652;28;20053;-68
2023/09/09 04:53:21;;;;;;;16.08;8.23;;;;;;;26.66;53.75;100901.25;5045887;28;20065;-68
2023/09/09 04:55:48;;;;;;;16.05;6.60;;;;;;;26.52;53.79;100910.66;5049876;28;20451;-67
2023/09/09 04:58:16;;;;;;;13.50;7.20;;;;;;;26.58;53.64;100894.06;5051413;28;20119;-68
2023/09/09 05:00:43;;;;;;;16.38;7.97;;;;;;;26.57;53.83;100898.91;5053875;28;20049;-68
2023/09/09 05:03:11;;;;;;;17.77;7.28;;;;;;;26.60;53.88;100905.75;5052747;28;20052;-68
2023/09/09 05:05:38;;;;;;;13.43;6.30;;;;;;;26.46;54.18;100903.06;5021849;28;20053;-68
2023/09/09 05:08:06;;;;;;;16.92;6.63;;;;;;;26.51;53.89;100911.91;5048701;28;20056;-68
2023/09/09 05:10:34;;;;;;;15.95;7.35;;;;;;;26.73;53.31;100909.69;5046639;28;20049;-67
2023/09/09 05:13:04;;;;;;;13.37;6.73;;;;;;;26.33;54.31;100908.41;5041345;28;20061;-66
2023/09/09 05:15:33;;;;;;;19.42;6.90;;;;;;;26.33;54.65;100910.41;5051422;28;20056;-68
2023/09/09 05:18:00;;;;;;;17.40;6.88;;;;;;;26.46;54.45;100915.16;5069938;28;20538;-68
2023/09/09 05:20:27;;;;;;;17.25;6.68;;;;;;;26.52;54.21;100913.47;5071749;28;20049;-68
2023/09/09 05:22:55;;;;;;;19.52;6.80;;;;;;;26.70;53.90;100913.34;5052634;28;20060;-68
2023/09/09 05:25:23;;;;;;;17.02;7.90;;;;;;;26.80;53.14;100914.50;5031455;28;20060;-67
2023/09/09 05:27:51;;;;;;;17.83;8.77;;;;;;;26.69;53.87;100916.59;5031578;28;20053;-67
2023/09/09 05:30:19;;;;;;;46.65;25.88;;;;;;;26.72;54.00;100915.75;5032563;28;20050;-68
2023/09/09 05:32:46;;;;;;;72.72;45.63;;;;;;;26.70;53.63;100907.72;5031700;28;20076;-68
2023/09/09 05:35:14;;;;;;;33.92;18.75;;;;;;;26.66;53.76;100915.38;5031867;28;20052;-69
2023/09/09 05:37:42;;;;;;;15.43;7.18;;;;;;;26.53;54.01;100923.59;5040603;28;20076;-68
2023/09/09 05:40:10;;;;;;;16.25;8.00;;;;;;;26.57;54.06;100930.00;5040639;28;20443;-68
2023/09/09 05:42:39;;;;;;;18.75;8.23;;;;;;;26.56;54.32;100924.75;5067392;28;20041;-68
2023/09/09 05:45:11;;;;;;;54.78;35.13;;;;;;;26.34;54.97;100926.94;5051961;28;20057;-68
2023/09/09 05:47:40;;;;;;;46.80;25.73;;;;;;;26.37;54.98;100937.44;5051011;28;20052;-67
2023/09/09 05:50:08;;;;;;;67.22;37.38;;;;;;;26.46;54.73;100939.78;5059455;28;20048;-67
2023/09/09 05:52:35;;;;;;;27.10;11.82;;;;;;;26.32;54.62;100934.25;5038527;28;20057;-68
2023/09/09 05:55:04;;;;;;;17.70;8.13;;;;;;;26.22;55.38;100933.09;5031875;28;20062;-67
2023/09/09 05:57:34;;;;;;;28.33;9.00;;;;;;;26.21;55.19;100930.69;5045921;28;20049;-68
2023/09/09 06:00:02;;;;;;;24.60;10.38;;;;;;;26.08;55.04;100938.06;5052599;28;20048;-68
2023/09/09 06:02:38;;;;;;;22.98;7.57;;;;;;;26.04;55.02;100938.06;5051604;28;20041;-68
2023/09/09 06:05:07;;;;;;;27.75;12.18;;;;;;;26.15;54.69;100935.19;5051691;28;20075;-69
2023/09/09 06:07:36;;;;;;;16.27;8.52;;;;;;;26.12;55.15;100933.97;5051317;28;20053;-69
2023/09/09 06:10:10;;;;;;;20.58;6.90;;;;;;;26.12;55.51;100936.78;5055486;28;20585;-68
2023/09/09 06:12:37;;;;;;;26.80;7.30;;;;;;;26.06;55.61;100932.00;5072185;28;20487;-69
2023/09/09 06:15:06;;;;;;;22.08;7.75;;;;;;;26.06;55.66;100940.47;5060176;28;20053;-69
2023/09/09 06:17:33;;;;;;;23.85;8.82;;;;;;;26.09;55.31;100934.81;5051202;28;20068;-70
2023/09/09 06:20:01;;;;;;;23.05;8.80;;;;;;;26.38;55.13;100938.22;5053314;28;20048;-68
2023/09/09 06:22:32;;;;;;;26.15;9.15;;;;;;;26.42;55.03;100945.47;5057504;28;20048;-68
2023/09/09 06:24:59;;;;;;;28.92;9.70;;;;;;;26.32;55.08;100943.53;5063167;28;20067;-67
2023/09/09 06:27:27;;;;;;;26.90;11.63;;;;;;;26.31;55.31;100950.38;5050587;28;20419;-69
2023/09/09 06:29:54;;;;;;;21.25;8.73;;;;;;;26.32;55.22;100952.00;5051339;28;20045;-70
2023/09/09 06:32:22;;;;;;;17.52;7.07;;;;;;;26.42;55.04;100953.94;5051127;28;20052;-67
2023/09/09 06:34:50;;;;;;;20.17;7.00;;;;;;;26.63;54.74;100956.59;5047125;28;20424;-68
2023/09/09 06:37:17;;;;;;;15.52;7.80;;;;;;;26.73;54.62;100957.75;5047742;28;20699;-68
2023/09/09 06:39:44;;;;;;;21.35;7.85;;;;;;;26.58;54.70;100956.22;5049534;28;20041;-68
2023/09/09 06:42:13;;;;;;;17.65;7.07;;;;;;;26.56;54.73;100962.31;5036056;28;20046;-68
2023/09/09 06:44:45;;;;;;;21.98;8.38;;;;;;;26.66;54.43;100963.41;5034672;28;20068;-69
2023/09/09 06:47:13;;;;;;;22.30;10.48;;;;;;;26.76;54.81;100961.75;5052335;28;20056;-68
2023/09/09 06:49:41;;;;;;;19.48;7.10;;;;;;;26.73;54.05;100949.25;5056831;28;20068;-68
2023/09/09 06:52:08;;;;;;;25.83;8.43;;;;;;;26.59;54.81;100955.00;5055260;28;20049;-68
2023/09/09 06:54:35;;;;;;;22.55;9.57;;;;;;;26.46;55.18;100953.91;5055873;28;20060;-69
2023/09/09 06:57:03;;;;;;;19.38;6.80;;;;;;;26.58;55.07;100954.22;5055745;28;20056;-69
2023/09/09 06:59:30;;;;;;;33.05;11.57;;;;;;;26.72;54.25;100958.16;5071243;28;20052;-70
2023/09/09 07:01:58;;;;;;;20.05;8.15;;;;;;;26.73;54.81;100952.09;5056133;28;20049;-68
2023/09/09 07:04:25;;;;;;;21.45;8.18;;;;;;;26.85;54.38;100950.78;5054431;28;20052;-68
2023/09/09 07:06:52;;;;;;;23.50;6.88;;;;;;;26.64;54.34;100954.56;5055512;28;20423;-68
2023/09/09 07:09:39;;;;;;;19.30;7.53;;;;;;;26.56;54.84;100959.47;5055650;28;20061;-68
2023/09/09 07:12:09;;;;;;;16.38;6.47;;;;;;;26.58;54.23;100956.22;5075170;28;20051;-69
2023/09/09 07:14:36;;;;;;;;;;;;;;;26.28;55.23;100954.03;5072845;28;20060;-68
2023/09/09 07:17:08;;;;;;;16.42;7.03;;;;;;;26.41;55.35;100952.31;5054124;28;19927;-69
2023/09/09 07:19:35;;;;;;;22.65;7.57;;;;;;;26.71;54.44;100962.22;5068070;28;20141;-68
2023/09/09 07:22:03;;;;;;;25.95;9.77;;;;;;;26.77;54.24;100952.06;5066510;28;20507;-67
2023/09/09 07:24:30;;;;;;;27.33;7.78;;;;;;;26.79;53.93;100964.56;5064462;28;20049;-68
2023/09/09 07:27:00;;;;;;;17.52;6.47;;;;;;;26.85;53.66;100962.88;5035416;28;20550;-68
2023/09/09 07:29:28;;;;;;;17.75;5.43;;;;;;;26.71;54.36;100963.00;5035015;28;20076;-69
2023/09/09 07:31:55;;;;;;;22.67;6.50;;;;;;;26.87;53.76;100956.81;5055527;28;20036;-69
2023/09/09 07:34:24;;;;;;;27.10;6.90;;;;;;;26.88;54.00;100958.41;5055629;28;20049;-69
2023/09/09 07:36:52;;;;;;;15.18;5.32;;;;;;;26.92;53.39;100950.72;5068251;28;20052;-69
2023/09/09 07:39:19;;;;;;;26.55;7.70;;;;;;;27.14;52.93;100960.59;5074875;28;20048;-69
2023/09/09 07:41:46;;;;;;;23.63;6.07;;;;;;;27.11;53.10;100962.22;5074072;28;20045;-69
2023/09/09 07:44:14;;;;;;;21.73;6.13;;;;;;;27.25;52.77;100955.63;5056767;28;20049;-70
2023/09/09 07:46:41;;;;;;;21.08;6.13;;;;;;;27.05;52.77;100961.06;5054951;28;20060;-69
2023/09/09 07:49:09;;;;;;;32.17;6.15;;;;;;;26.92;53.05;100965.63;5073382;28;20057;-68
2023/09/09 07:51:36;;;;;;;29.98;6.70;;;;;;;27.12;53.08;100963.84;5061486;28;20045;-67
2023/09/09 07:54:04;;;;;;;31.23;6.95;;;;;;;27.36;52.17;100978.94;5055016;28;20052;-70
2023/09/09 07:56:33;;;;;;;18.00;5.97;;;;;;;27.46;51.54;100976.00;5054651;28;20056;-67
2023/09/09 07:59:01;;;;;;;23.00;6.60;;;;;;;27.53;51.11;100963.81;5069928;28;20533;-67
2023/09/09 08:01:31;;;;;;;21.60;7.05;;;;;;;27.37;51.95;100963.59;5054323;28;20037;-67
2023/09/09 08:03:59;;;;;;;28.13;6.75;;;;;;;27.59;51.67;100970.59;5046414;28;20049;-67
2023/09/09 08:06:27;;;;;;;28.33;7.75;;;;;;;27.81;51.13;100971.94;5045990;28;20049;-67
2023/09/09 08:08:54;;;;;;;19.95;5.78;;;;;;;27.80;50.46;100967.50;5043368;28;20053;-67
2023/09/09 08:11:21;;;;;;;20.73;7.45;;;;;;;27.87;50.48;100964.59;5042908;28;20052;-67
2023/09/09 08:13:49;;;;;;;22.40;7.07;;;;;;;28.21;49.42;100981.53;5053104;28;20072;-67
2023/09/09 08:16:16;;;;;;;20.75;5.80;;;;;;;28.05;49.41;100968.00;5053904;28;20049;-67
2023/09/09 08:18:44;;;;;;;17.45;5.00;;;;;;;27.91;49.33;100968.22;5053502;28;20060;-67
2023/09/09 08:21:14;;;;;;;14.75;5.45;;;;;;;28.03;49.47;100973.28;5050061;28;20040;-67
2023/09/09 08:23:41;;;;;;;21.35;5.75;;;;;;;28.00;48.61;100976.97;5035897;28;20064;-68
2023/09/09 08:26:11;;;;;;;22.58;9.88;;;;;;;27.98;48.67;100976.59;5039895;28;20049;-68
2023/09/09 08:28:40;;;;;;;;;;;;;;;27.82;48.75;100969.91;5044514;28;20045;-68
2023/09/09 08:31:07;;;;;;;19.92;6.43;;;;;;;27.77;48.68;100971.97;5043118;28;19940;-68
2023/09/09 08:33:34;;;;;;;22.08;7.03;;;;;;;27.85;49.18;100978.34;5050688;28;20048;-68
2023/09/09 08:36:03;;;;;;;15.60;5.68;;;;;;;28.09;48.20;100971.56;5055570;28;20045;-68
2023/09/09 08:38:30;;;;;;;19.10;6.85;;;;;;;28.34;47.54;100966.34;5049605;28;20052;-67
2023/09/09 08:41:05;;;;;;;20.55;6.53;;;;;;;28.38;47.48;100972.78;5043704;28;20047;-69
2023/09/09 08:43:46;;;;;;;18.70;6.90;;;;;;;28.31;47.11;100974.91;5045474;28;20061;-67
2023/09/09 08:46:17;;;;;;;21.50;6.60;;;;;;;28.49;47.02;100981.09;5039471;28;20068;-65
2023/09/09 08:48:44;;;;;;;16.02;6.03;;;;;;;28.56;47.13;100981.00;5051234;28;20084;-67
2023/09/09 08:51:14;;;;;;;32.95;10.27;;;;;;;28.41;47.23;100980.41;5054699;28;20045;-68
2023/09/09 08:53:43;;;;;;;25.80;7.90;;;;;;;28.15;47.61;100969.06;5044059;28;20053;-67
2023/09/09 08:56:12;;;;;;;20.70;5.80;;;;;;;28.09;47.65;100971.56;5049438;28;20056;-69
2023/09/09 08:58:40;;;;;;;22.40;6.53;;;;;;;28.38;47.44;100967.09;5043061;28;20049;-67
2023/09/09 09:01:08;;;;;;;22.27;6.18;;;;;;;28.13;47.67;100983.66;5052913;28;20395;-67
2023/09/09 09:03:36;;;;;;;20.55;5.32;;;;;;;28.41;46.90;100969.06;5052931;28;20056;-67
2023/09/09 09:06:05;;;;;;;18.80;5.95;;;;;;;28.40;46.48;100969.50;5050784;28;20064;-66
2023/09/09 09:08:33;;;;;;;15.55;5.90;;;;;;;28.30;47.22;100965.59;5041917;28;20573;-67
2023/09/09 09:11:03;;;;;;;14.45;5.80;;;;;;;28.48;46.71;100966.13;5049669;28;20053;-64
2023/09/09 09:13:31;;;;;;;22.13;9.23;;;;;;;28.73;46.45;100969.38;5040351;28;20045;-67
2023/09/09 09:15:59;;;;;;;14.68;5.20;;;;;;;28.61;46.68;100963.53;5047031;28;20071;-63
2023/09/09 09:18:27;;;;;;;16.52;5.65;;;;;;;28.53;46.77;100962.84;5047015;28;20053;-69
2023/09/09 09:21:09;;;;;;;19.00;5.30;;;;;;;28.75;45.91;100971.78;5045833;28;20064;-68
2023/09/09 09:23:46;;;;;;;18.50;6.45;;;;;;;28.56;46.25;100966.84;5037832;28;20042;-69
2023/09/09 09:26:27;;;;;;;19.77;4.93;;;;;;;29.07;45.40;100969.19;5039350;28;20064;-69
2023/09/09 09:28:54;;;;;;;12.40;6.03;;;;;;;29.10;45.05;100973.22;5046552;28;20049;-67
2023/09/09 09:31:23;;;;;;;23.25;6.53;;;;;;;28.89;44.86;100968.69;5045079;28;20049;-69
2023/09/09 09:33:51;;;;;;;15.13;5.82;;;;;;;29.00;45.01;100972.16;5041336;28;20056;-67
2023/09/09 09:36:20;;;;;;;16.85;5.57;;;;;;;29.15;45.11;100973.50;5054858;28;20060;-67
2023/09/09 09:38:48;;;;;;;15.23;5.43;;;;;;;29.07;44.30;100969.19;5046673;28;20044;-68
2023/09/09 09:41:20;;;;;;;17.60;5.90;;;;;;;28.97;44.72;100975.06;5047031;28;20045;-70
2023/09/09 09:43:49;;;;;;;15.05;5.55;;;;;;;29.04;44.70;100978.56;5039170;28;20048;-68
2023/09/09 09:46:19;;;;;;;11.65;5.25;;;;;;;29.39;43.84;100977.13;5054079;28;20045;-69
2023/09/09 09:48:47;;;;;;;15.95;5.30;;;;;;;29.28;44.03;100968.81;5042757;28;20049;-69
2023/09/09 09:51:16;;;;;;;16.98;6.30;;;;;;;29.35;43.88;100965.03;5050097;28;20151;-68
2023/09/09 09:53:56;;;;;;;13.48;4.93;;;;;;;29.65;43.29;100974.16;5040790;28;20393;-68
2023/09/09 09:56:23;;;;;;;16.52;6.25;;;;;;;29.61;43.62;100958.41;5038025;28;20485;-67
2023/09/09 09:58:52;;;;;;;16.35;5.78;;;;;;;29.65;43.46;100964.81;5040658;28;20057;-68
2023/09/09 10:01:21;;;;;;;15.80;5.43;;;;;;;29.50;43.64;100957.84;5050223;28;20679;-68
2023/09/09 10:03:55;;;;;;;19.15;5.30;;;;;;;29.54;43.48;100965.03;5046526;28;20045;-68
2023/09/09 10:06:27;;;;;;;20.17;6.32;;;;;;;29.81;42.89;100965.72;5036020;28;20053;-67
2023/09/09 10:09:13;;;;;;;20.80;5.78;;;;;;;29.72;43.16;100967.56;5049266;28;20049;-68
2023/09/09 10:11:49;;;;;;;18.20;5.72;;;;;;;29.94;42.35;100963.00;5057339;28;20053;-69
2023/09/09 10:14:17;;;;;;;16.13;5.43;;;;;;;30.04;41.72;100967.63;5058924;28;20044;-70
2023/09/09 10:16:45;;;;;;;16.00;5.70;;;;;;;30.07;42.00;100961.09;5030091;28;20057;-70
2023/09/09 10:19:13;;;;;;;16.90;5.70;;;;;;;29.82;41.91;100958.00;5042843;28;20415;-68
2023/09/09 10:21:42;;;;;;;11.57;5.18;;;;;;;29.88;41.61;100961.13;5041493;28;20545;-68
2023/09/09 10:24:11;;;;;;;15.10;5.15;;;;;;;30.01;41.29;100951.47;5043377;28;20049;-68
2023/09/09 10:26:39;;;;;;;14.23;5.15;;;;;;;30.10;40.96;100950.88;5038847;28;20041;-68
2023/09/09 10:29:08;;;;;;;12.45;5.10;;;;;;;30.08;39.95;100956.19;5045553;28;20052;-68
2023/09/09 10:31:39;;;;;;;13.45;5.20;;;;;;;30.19;39.92;100960.41;5051728;28;20049;-67
2023/09/09 10:34:09;;;;;;;15.70;5.77;;;;;;;30.12;40.38;100949.19;5045943;28;20045;-67
2023/09/09 10:36:37;;;;;;;14.85;5.53;;;;;;;30.06;39.56;100953.78;5025840;28;20053;-70
2023/09/09 10:39:25;;;;;;;9.82;5.53;;;;;;;30.35;39.65;100959.66;5047147;28;20041;-68
2023/09/09 10:41:54;;;;;;;14.43;5.47;;;;;;;30.33;39.20;100948.75;5042978;28;20045;-68
2023/09/09 10:44:23;;;;;;;14.50;4.90;;;;;;;30.46;39.24;100957.38;5044060;28;20526;-67
2023/09/09 10:46:54;;;;;;;22.45;6.20;;;;;;;30.56;39.02;100945.69;5026235;28;20090;-69
2023/09/09 10:49:32;;;;;;;13.73;5.50;;;;;;;30.66;39.10;100944.66;5048498;28;20052;-68
2023/09/09 10:51:59;;;;;;;13.23;5.45;;;;;;;30.76;38.38;100939.94;5039130;28;20087;-69
2023/09/09 10:54:33;;;;;;;14.50;6.07;;;;;;;30.64;38.41;100932.13;5038637;28;20048;-68
2023/09/09 10:57:02;;;;;;;11.25;5.00;;;;;;;30.74;38.08;100933.88;5011042;28;20068;-68
2023/09/09 10:59:31;;;;;;;12.05;5.32;;;;;;;30.73;37.81;100930.25;5056302;28;20411;-69
2023/09/09 11:02:21;;;;;;;8.10;4.65;;;;;;;30.98;37.71;100923.13;5037238;28;20061;-72
2023/09/09 11:05:00;;;;;;;10.88;5.40;;;;;;;31.07;37.30;100929.00;5018618;28;20063;-67
2023/09/09 11:07:41;;;;;;;9.07;5.18;;;;;;;31.29;36.65;100921.44;5041537;28;20067;-70
2023/09/09 11:10:10;;;;;;;10.10;5.07;;;;;;;31.53;35.55;100920.75;5037539;28;20041;-68
2023/09/09 11:12:48;;;;;;;8.77;4.72;;;;;;;31.35;36.42;100914.00;5028737;28;20045;-68
2023/09/09 11:15:16;;;;;;;12.53;5.53;;;;;;;31.48;35.65;100912.78;5037079;28;20053;-67
2023/09/09 11:17:44;;;;;;;11.80;4.95;;;;;;;31.62;35.80;100918.06;5046521;28;20048;-67
2023/09/09 11:20:13;;;;;;;9.93;5.45;;;;;;;31.85;35.17;100917.72;5044849;28;20042;-67
2023/09/09 11:22:42;;;;;;;12.23;5.20;;;;;;;31.73;34.85;100917.72;5059420;28;20061;-68
2023/09/09 11:25:09;;;;;;;9.68;4.72;;;;;;;31.86;34.23;100918.53;5047326;28;20060;-69